Time;durP1;ratioP1;P1;durP2;ratioP2;P2;SDS_P1;SDS_P2;PMS_P1;PMS_P2;Temp;Humidity;BMP_temperature;BMP_pressure;BME280_temperature;BME280_humidity;BME280_pressure;Samples;Min_cycle;Max_cycle;Signal;HPM_P1;HPM_P2
2022/03/26 00:00:36;;;;;;;;;39.25;36.00;;;;;15.64;33.95;101917.72;5059471;27;45429;-61
2022/03/26 00:03:02;;;;;;;;;47.25;37.75;;;;;15.63;34.61;101916.81;5066863;27;45480;-63
2022/03/26 00:05:28;;;;;;;;;50.00;40.50;;;;;15.63;33.49;101918.63;5063466;27;45601;-62
2022/03/26 00:07:53;;;;;;;;;49.75;40.25;;;;;15.57;33.97;101918.84;5059547;27;46271;-62
2022/03/26 00:10:18;;;;;;;;;50.50;40.75;;;;;15.58;34.69;101921.44;5059140;27;45510;-62
2022/03/26 00:12:44;;;;;;;;;54.25;42.25;;;;;15.53;33.53;101915.44;5061068;27;45370;-61
2022/03/26 00:15:10;;;;;;;;;42.75;34.75;;;;;15.46;34.02;101914.78;5062132;27;45444;-62
2022/03/26 00:17:36;;;;;;;;;51.00;42.25;;;;;15.43;34.60;101916.69;5058669;27;45587;-62
2022/03/26 00:20:03;;;;;;;;;49.75;40.75;;;;;15.38;33.77;101913.31;5057377;28;45382;-62
2022/03/26 00:22:29;;;;;;;;;50.50;40.00;;;;;15.36;34.73;101910.69;5058894;27;45394;-63
2022/03/26 00:24:54;;;;;;;;;52.00;41.75;;;;;15.33;34.60;101915.25;5077397;27;45580;-62
2022/03/26 00:27:19;;;;;;;;;45.75;38.00;;;;;15.33;34.14;101905.50;5076849;27;46461;-62
2022/03/26 00:29:45;;;;;;;;;50.25;40.00;;;;;15.36;33.96;101909.84;5058763;27;45406;-62
2022/03/26 00:32:10;;;;;;;;;51.25;41.75;;;;;15.32;34.56;101910.88;5057956;27;45405;-63
2022/03/26 00:34:36;;;;;;;;;47.50;40.75;;;;;15.32;35.32;101919.69;5057777;28;45652;-62
2022/03/26 00:37:02;;;;;;;;;49.25;40.75;;;;;15.34;34.68;101911.66;5056986;28;45426;-62
2022/03/26 00:39:28;;;;;;;;;47.75;40.50;;;;;15.35;34.72;101922.22;5060103;27;45540;-63
2022/03/26 00:41:54;;;;;;;;;51.75;42.25;;;;;15.34;34.49;101914.31;5057609;27;45419;-62
2022/03/26 00:44:20;;;;;;;;;48.00;39.50;;;;;15.34;34.22;101914.31;5057599;28;45702;-62
2022/03/26 00:46:46;;;;;;;;;45.50;37.25;;;;;15.32;34.89;101911.75;5068810;27;45965;-61
2022/03/26 00:49:15;;;;;;;;;49.00;41.75;;;;;15.29;34.58;101917.16;5056851;28;45363;-62
2022/03/26 00:51:41;;;;;;;;;51.75;43.75;;;;;15.29;34.66;101913.63;5071879;27;45441;-63
2022/03/26 00:54:10;;;;;;;;;51.25;42.50;;;;;15.26;34.89;101917.25;5059137;27;45442;-63
2022/03/26 00:56:37;;;;;;;;;50.50;40.25;;;;;15.19;34.99;101910.41;5056514;28;45550;-63
2022/03/26 00:59:02;;;;;;;;;38.75;33.00;;;;;15.18;34.95;101909.56;5056786;28;45431;-62
2022/03/26 01:01:28;;;;;;;;;47.75;39.25;;;;;15.18;34.78;101916.66;5057714;27;45571;-63
2022/03/26 01:03:53;;;;;;;;;53.25;43.00;;;;;15.13;34.75;101908.84;5072248;27;45563;-63
2022/03/26 01:06:19;;;;;;;;;54.00;43.25;;;;;15.12;35.08;101901.78;5076898;27;45434;-62
2022/03/26 01:08:45;;;;;;;;;50.00;41.25;;;;;15.11;35.39;101896.56;5075143;27;46436;-62
2022/03/26 01:11:10;;;;;;;;;51.00;41.00;;;;;15.04;35.49;101901.19;5077104;27;45463;-62
2022/03/26 01:13:38;;;;;;;;;52.75;43.00;;;;;15.03;35.25;101902.13;5059070;27;45474;-63
2022/03/26 01:16:04;;;;;;;;;48.25;39.00;;;;;15.04;35.64;101895.88;5056737;27;45528;-62
2022/03/26 01:18:30;;;;;;;;;50.25;42.00;;;;;15.05;35.42;101908.22;5055003;28;45463;-63
2022/03/26 01:20:55;;;;;;;;;53.00;40.25;;;;;15.05;35.19;101908.22;5076053;27;45387;-63
2022/03/26 01:23:21;;;;;;;;;50.00;41.50;;;;;15.02;35.09;101903.03;5075861;28;45659;-63
2022/03/26 01:25:47;;;;;;;;;27.50;24.25;;;;;15.01;34.99;101899.50;5073859;27;46129;-63
2022/03/26 01:28:14;;;;;;;;;50.75;42.25;;;;;14.97;35.25;101899.66;5076484;27;45345;-63
2022/03/26 01:30:40;;;;;;;;;48.75;40.75;;;;;14.93;35.20;101892.72;5073924;27;45453;-63
2022/03/26 01:33:06;;;;;;;;;49.50;39.75;;;;;14.93;35.16;101892.72;5056451;28;45552;-63
2022/03/26 01:35:31;;;;;;;;;46.50;40.00;;;;;14.88;35.59;101886.72;5056609;27;45468;-63
2022/03/26 01:38:01;;;;;;;;;50.00;41.25;;;;;14.84;35.76;101893.91;5075777;28;45440;-63
2022/03/26 01:40:27;;;;;;;;;50.75;41.00;;;;;14.74;36.46;101900.41;5055315;28;45481;-63
2022/03/26 01:42:52;;;;;;;;;53.00;43.50;;;;;14.75;35.95;101884.47;5056605;27;45406;-63
2022/03/26 01:45:17;;;;;;;;;49.75;41.00;;;;;14.73;36.06;101893.38;5056171;28;45453;-63
2022/03/26 01:47:43;;;;;;;;;49.25;40.25;;;;;14.69;36.21;101892.59;5067754;27;45383;-63
2022/03/26 01:50:08;;;;;;;;;15.25;12.00;;;;;14.70;36.28;101891.69;5061502;27;45484;-63
2022/03/26 01:52:33;;;;;;;;;53.25;43.00;;;;;14.68;35.81;101888.22;5073774;28;45339;-63
2022/03/26 01:54:59;;;;;;;;;48.75;40.75;;;;;14.69;36.29;101884.66;5055802;28;46295;-64
2022/03/26 01:57:26;;;;;;;;;45.50;40.00;;;;;14.65;36.24;101880.38;5059562;27;45515;-64
2022/03/26 01:59:51;;;;;;;;;47.75;39.75;;;;;14.63;36.32;101870.75;5076192;27;45510;-64
2022/03/26 02:02:17;;;;;;;;;49.25;40.25;;;;;14.65;35.74;101876.88;5074789;27;45423;-64
2022/03/26 02:04:42;;;;;;;;;47.25;39.00;;;;;14.53;36.09;101871.06;5075969;27;46045;-64
2022/03/26 02:07:08;;;;;;;;;50.75;40.25;;;;;14.53;36.16;101878.13;5074338;27;45371;-63
2022/03/26 02:09:35;;;;;;;;;52.00;42.25;;;;;14.50;36.01;101871.09;5062928;27;45494;-63
2022/03/26 02:12:02;;;;;;;;;47.75;39.50;;;;;14.47;36.67;101865.91;5068170;27;45703;-63
2022/03/26 02:14:27;;;;;;;;;42.00;35.75;;;;;14.48;36.31;101875.59;5055185;28;46536;-63
2022/03/26 02:16:52;;;;;;;;;49.25;39.75;;;;;14.48;36.67;101869.41;5072414;27;45390;-63
2022/03/26 02:19:19;;;;;;;;;48.75;40.75;;;;;14.45;36.88;101865.06;5075807;27;45397;-62
2022/03/26 02:21:49;;;;;;;;;51.50;41.50;;;;;14.38;36.70;101862.69;5075066;28;45611;-63
2022/03/26 02:24:15;;;;;;;;;47.75;37.25;;;;;14.39;36.27;101867.06;5073774;28;47018;-63
2022/03/26 02:26:41;;;;;;;;;49.50;41.25;;;;;14.34;36.90;101872.50;5058576;27;45789;-63
2022/03/26 02:29:09;;;;;;;;;46.00;39.00;;;;;14.38;37.00;101875.94;5055198;28;45359;-63
2022/03/26 02:31:35;;;;;;;;;49.75;41.75;;;;;14.33;36.81;101868.97;5066900;27;45448;-62
2022/03/26 02:34:00;;;;;;;;;53.00;40.75;;;;;14.34;36.50;101864.56;5075464;27;45451;-64
2022/03/26 02:36:26;;;;;;;;;50.50;41.75;;;;;14.36;36.73;101866.22;5056712;27;45426;-62
2022/03/26 02:38:51;;;;;;;;;51.25;39.00;;;;;14.39;36.52;101865.28;5056879;28;47785;-63
2022/03/26 02:41:16;;;;;;;;;42.50;38.50;;;;;14.39;36.53;101862.63;5055448;28;45613;-63
2022/03/26 02:46:26;;;;;;;;;47.75;41.25;;;;;14.43;36.82;101866.94;5055571;27;45421;-63
2022/03/26 02:48:51;;;;;;;;;49.50;41.75;;;;;14.45;36.71;101858.91;5058193;27;45578;-63
2022/03/26 02:51:17;;;;;;;;;49.25;37.75;;;;;14.44;36.47;101852.78;5077463;27;45447;-62
2022/03/26 02:53:42;;;;;;;;;49.00;36.75;;;;;14.43;36.45;101856.34;5077218;27;45521;-64
2022/03/26 02:56:08;;;;;;;;;44.25;38.00;;;;;14.44;36.62;101859.84;5079218;28;45456;-64
2022/03/26 02:58:33;;;;;;;;;42.00;34.50;;;;;14.44;36.48;101852.78;5078606;27;45375;-62
2022/03/26 03:00:58;;;;;;;;;52.50;42.00;;;;;14.44;36.49;101858.06;5076328;27;45501;-64
2022/03/26 03:03:23;;;;;;;;;44.75;38.25;;;;;14.45;36.55;101859.78;5073646;27;45433;-62
2022/03/26 03:05:49;;;;;;;;;50.00;39.00;;;;;14.44;36.79;101859.84;5058087;27;45470;-62
2022/03/26 03:08:15;;;;;;;;;41.75;36.25;;;;;14.42;36.35;101851.94;5058764;28;45350;-63
2022/03/26 03:10:42;;;;;;;;;51.75;42.00;;;;;14.40;36.57;101855.53;5059314;27;45388;-62
2022/03/26 03:13:08;;;;;;;;;46.00;37.50;;;;;14.33;36.63;101855.75;5059025;27;45434;-62
2022/03/26 03:15:34;;;;;;;;;54.25;43.50;;;;;14.31;36.70;101857.56;5061023;27;45404;-63
2022/03/26 03:17:59;;;;;;;;;45.00;39.25;;;;;14.31;36.57;101846.97;5074885;27;45374;-62
2022/03/26 03:20:25;;;;;;;;;52.75;42.00;;;;;14.32;36.75;101851.38;5058530;28;45574;-63
2022/03/26 03:22:50;;;;;;;;;51.50;40.50;;;;;14.32;36.83;101861.09;5059332;27;45740;-63
2022/03/26 03:25:16;;;;;;;;;44.25;37.25;;;;;14.31;36.84;101854.06;5057703;27;45419;-62
2022/03/26 03:27:42;;;;;;;;;54.50;43.00;;;;;14.32;36.28;101854.03;5058518;28;45444;-62
2022/03/26 03:30:08;;;;;;;;;50.75;42.00;;;;;14.33;36.97;101854.88;5057514;28;45430;-63
2022/03/26 03:32:34;;;;;;;;;52.50;42.50;;;;;14.34;36.55;101860.13;5073212;27;46518;-64
2022/03/26 03:34:59;;;;;;;;;42.25;38.00;;;;;14.35;36.97;101853.06;5074113;27;49721;-64
2022/03/26 03:37:24;;;;;;;;;49.25;39.00;;;;;14.35;36.58;101861.00;5058261;28;45462;-63
2022/03/26 03:39:50;;;;;;;;;50.75;39.75;;;;;14.34;37.13;101852.19;5074109;28;45454;-63
2022/03/26 03:42:16;;;;;;;;;49.50;41.50;;;;;14.36;36.81;101854.78;5062677;27;46242;-63
2022/03/26 03:44:41;;;;;;;;;51.00;42.50;;;;;14.37;37.11;101851.22;5058425;27;45426;-63
2022/03/26 03:47:07;;;;;;;;;46.00;38.25;;;;;14.35;36.82;101851.28;5058463;27;45700;-62
2022/03/26 03:49:32;;;;;;;;;47.75;39.75;;;;;14.35;36.82;101853.06;5063184;27;45525;-62
2022/03/26 03:51:58;;;;;;;;;47.75;40.00;;;;;14.32;36.80;101851.38;5061438;28;45456;-63
2022/03/26 03:54:24;;;;;;;;;46.50;38.00;;;;;14.34;36.63;101853.97;5078312;28;45430;-63
2022/03/26 03:56:50;;;;;;;;;43.00;36.50;;;;;14.31;37.17;101860.22;5066011;27;45538;-62
2022/03/26 03:59:15;;;;;;;;;54.25;41.25;;;;;14.33;36.61;101857.53;5076941;27;45428;-63
2022/03/26 04:01:42;;;;;;;;;50.25;38.25;;;;;14.32;37.34;101861.97;5091988;27;45779;-64
2022/03/26 04:04:07;;;;;;;;;48.25;40.50;;;;;14.29;36.76;101862.06;5096755;27;45451;-63
2022/03/26 04:06:32;;;;;;;;;37.75;33.50;;;;;14.26;37.01;101856.84;5098789;27;45448;-63
2022/03/26 04:08:58;;;;;;;;;50.75;38.00;;;;;14.22;36.95;101865.81;5090590;27;45513;-62
2022/03/26 04:11:23;;;;;;;;;51.00;42.00;;;;;14.20;36.73;101880.84;5061641;27;46207;-62
2022/03/26 04:13:52;;;;;;;;;47.50;39.00;;;;;14.17;36.98;101878.28;5076617;28;45397;-62
2022/03/26 04:16:20;;;;;;;;;47.50;37.25;;;;;14.13;37.10;101871.34;5065514;27;45674;-62
2022/03/26 04:18:46;;;;;;;;;50.75;41.50;;;;;14.13;37.05;101872.25;5058531;28;45592;-64
2022/03/26 04:21:12;;;;;;;;;49.00;40.75;;;;;14.06;36.96;101868.03;5057755;27;45960;-62
2022/03/26 04:23:37;;;;;;;;;55.25;44.75;;;;;14.01;37.10;101861.16;5057524;28;45527;-62
2022/03/26 04:26:03;;;;;;;;;45.25;37.50;;;;;14.01;37.30;101864.66;5059287;27;45427;-63
2022/03/26 04:28:28;;;;;;;;;50.00;40.50;;;;;14.03;37.35;101870.78;5057672;28;45426;-64
2022/03/26 04:30:54;;;;;;;;;53.25;43.75;;;;;14.06;36.95;101872.47;5058126;28;46059;-63
2022/03/26 04:33:19;;;;;;;;;54.75;43.00;;;;;14.05;37.03;101863.66;5057204;28;45459;-63
2022/03/26 04:35:44;;;;;;;;;47.50;38.75;;;;;14.04;37.05;101874.28;5057815;27;45324;-64
2022/03/26 04:38:10;;;;;;;;;49.25;38.25;;;;;14.02;37.39;101876.09;5061409;27;45484;-64
2022/03/26 04:40:35;;;;;;;;;46.25;40.00;;;;;14.01;37.61;101874.38;5057693;28;46096;-62
2022/03/26 04:43:01;;;;;;;;;52.75;43.25;;;;;14.02;36.98;101876.97;5058072;27;45419;-62
2022/03/26 04:45:26;;;;;;;;;52.50;43.00;;;;;14.05;37.32;101881.28;5058260;27;45692;-62
2022/03/26 04:47:52;;;;;;;;;50.75;41.00;;;;;14.00;37.18;101880.59;5057253;28;45611;-62
2022/03/26 04:50:17;;;;;;;;;46.75;40.50;;;;;13.97;37.09;101876.25;5056932;28;46302;-63
2022/03/26 04:52:42;;;;;;;;;48.75;40.50;;;;;13.98;37.39;101871.81;5057779;27;45452;-64
2022/03/26 04:55:09;;;;;;;;;45.50;39.50;;;;;13.99;37.18;101876.19;5056478;28;45409;-62
2022/03/26 04:57:53;;;;;;;;;49.25;41.25;;;;;14.00;37.13;101875.28;5054778;27;45501;-63
2022/03/26 05:00:19;;;;;;;;;49.25;38.00;;;;;13.98;37.21;101866.53;5062620;27;46187;-64
2022/03/26 05:02:45;;;;;;;;;45.00;38.75;;;;;13.98;37.11;101869.19;5056785;28;45512;-63
2022/03/26 05:05:13;;;;;;;;;47.50;39.25;;;;;13.99;37.57;101865.59;5062957;27;45536;-62
2022/03/26 05:07:48;;;;;;;;;42.25;36.00;;;;;13.97;36.78;101875.34;5077011;28;45327;-64
2022/03/26 05:10:16;;;;;;;;;46.00;38.50;;;;;13.96;37.63;101878.94;5076827;27;45466;-63
2022/03/26 05:12:43;;;;;;;;;51.25;40.75;;;;;13.94;37.13;101878.97;5056907;27;45474;-63
2022/03/26 05:15:09;;;;;;;;;50.75;42.00;;;;;13.89;37.15;101880.91;5056806;27;45453;-63
2022/03/26 05:17:35;;;;;;;;;49.25;41.75;;;;;13.87;37.32;101877.41;5074751;27;45516;-64
2022/03/26 05:20:01;;;;;;;;;46.50;38.00;;;;;13.89;37.36;101880.91;5076430;27;46282;-63
2022/03/26 05:22:28;;;;;;;;;49.50;40.00;;;;;13.89;37.30;101888.84;5075612;27;45445;-64
2022/03/26 05:24:54;;;;;;;;;52.25;41.75;;;;;13.86;36.64;101879.22;5076745;27;45394;-64
2022/03/26 05:27:20;;;;;;;;;49.25;38.75;;;;;13.85;37.28;101889.81;5075757;27;45404;-64
2022/03/26 05:29:46;;;;;;;;;51.75;41.00;;;;;13.84;37.48;101883.66;5075037;27;47272;-64
2022/03/26 05:32:12;;;;;;;;;53.00;43.25;;;;;13.81;37.54;101880.22;5063262;27;45392;-63
2022/03/26 05:34:37;;;;;;;;;53.00;42.75;;;;;13.76;37.32;101884.81;5067205;27;45565;-64
2022/03/26 05:37:04;;;;;;;;;44.25;37.25;;;;;13.69;37.77;101884.94;5056735;27;45530;-64
2022/03/26 05:39:30;;;;;;;;;51.75;41.75;;;;;13.69;37.79;101890.22;5057629;27;45439;-61
2022/03/26 05:41:55;;;;;;;;;51.75;38.00;;;;;13.65;38.12;101900.97;5074400;27;45482;-60
2022/03/26 05:44:21;;;;;;;;;47.25;38.50;;;;;13.62;37.42;101903.66;5056301;28;45476;-64
2022/03/26 05:46:46;;;;;;;;;50.25;40.50;;;;;13.59;37.91;101899.31;5056478;27;45423;-64
2022/03/26 05:49:12;;;;;;;;;48.25;40.75;;;;;13.60;38.08;101905.50;5056121;28;45428;-63
2022/03/26 05:51:37;;;;;;;;;46.25;39.00;;;;;13.61;38.28;101910.72;5065723;27;45514;-64
2022/03/26 05:54:03;;;;;;;;;47.25;38.25;;;;;13.57;37.72;101911.72;5072484;27;45407;-63
2022/03/26 05:56:28;;;;;;;;;50.75;40.75;;;;;13.56;37.77;101907.34;5056169;28;45383;-64
2022/03/26 05:58:54;;;;;;;;;48.25;39.50;;;;;13.55;38.26;101904.75;5055744;28;45410;-63
2022/03/26 06:01:21;;;;;;;;;37.25;32.50;;;;;13.51;38.13;101908.38;5059828;27;45385;-63
2022/03/26 06:03:47;;;;;;;;;49.50;41.75;;;;;13.47;37.36;101913.75;5063432;27;45429;-62
2022/03/26 06:06:12;;;;;;;;;49.50;40.00;;;;;13.52;37.70;101912.75;5074278;27;45525;-63
2022/03/26 06:08:37;;;;;;;;;47.50;39.50;;;;;13.55;37.64;101907.41;5064702;27;50404;-63
2022/03/26 06:11:03;;;;;;;;;51.75;39.75;;;;;13.55;37.53;101904.75;5070747;27;45346;-63
2022/03/26 06:13:28;;;;;;;;;44.25;39.00;;;;;13.58;37.51;101902.88;5055820;28;45421;-61
2022/03/26 06:15:54;;;;;;;;;50.00;39.25;;;;;13.60;37.57;101910.78;5056262;27;45731;-63
2022/03/26 06:18:19;;;;;;;;;37.50;35.00;;;;;13.61;38.09;101913.38;5055396;28;45834;-63
2022/03/26 06:20:44;;;;;;;;;33.25;30.75;;;;;13.64;38.04;101915.94;5070675;27;45351;-63
2022/03/26 06:23:10;;;;;;;;;48.00;41.00;;;;;13.65;37.53;101915.03;5075734;27;45489;-62
2022/03/26 06:25:36;;;;;;;;;51.00;40.25;;;;;13.68;37.21;101920.25;5066617;27;45512;-63
2022/03/26 06:28:01;;;;;;;;;49.75;40.50;;;;;13.69;37.43;101927.25;5056005;27;45442;-61
2022/03/26 06:30:27;;;;;;;;;52.00;39.00;;;;;13.68;37.53;101930.81;5057958;27;45489;-63
2022/03/26 06:32:52;;;;;;;;;49.00;40.00;;;;;13.70;37.52;101930.75;5065384;27;45593;-63
2022/03/26 06:35:18;;;;;;;;;44.75;35.75;;;;;13.61;37.16;101925.72;5055833;27;45439;-64
2022/03/26 06:37:44;;;;;;;;;44.50;36.25;;;;;13.53;37.64;101927.72;5063958;27;46204;-63
2022/03/26 06:40:10;;;;;;;;;49.75;40.25;;;;;13.53;37.72;101928.56;5057211;27;45375;-62
2022/03/26 06:42:35;;;;;;;;;47.75;39.75;;;;;13.58;38.00;101933.75;5057684;27;45528;-62
2022/03/26 06:45:00;;;;;;;;;52.50;42.00;;;;;13.60;37.37;101932.78;5055412;27;45700;-62
2022/03/26 06:47:27;;;;;;;;;49.00;42.00;;;;;13.58;37.56;101936.38;5055901;27;45507;-63
2022/03/26 06:49:53;;;;;;;;;51.50;43.00;;;;;13.56;37.52;101948.78;5060348;27;45698;-62
2022/03/26 06:52:19;;;;;;;;;45.00;39.00;;;;;13.57;37.73;101947.88;5072654;27;45454;-62
2022/03/26 06:54:44;;;;;;;;;50.75;41.00;;;;;13.59;37.93;101949.53;5075385;27;45354;-62
2022/03/26 06:57:09;;;;;;;;;53.75;44.50;;;;;13.58;38.04;101950.47;5062091;28;47527;-63
2022/03/26 06:59:35;;;;;;;;;45.50;37.00;;;;;13.59;38.47;101954.84;5054497;28;52658;-63
2022/03/26 07:02:00;;;;;;;;;52.00;42.00;;;;;13.60;37.60;101958.38;5069137;27;45789;-62
2022/03/26 07:04:25;;;;;;;;;49.50;41.25;;;;;13.60;37.81;101958.38;5062587;27;45571;-62
2022/03/26 07:06:51;;;;;;;;;58.00;43.50;;;;;13.62;38.61;101960.06;5054879;28;46682;-63
2022/03/26 07:09:16;;;;;;;;;54.75;43.75;;;;;13.58;37.99;101966.31;5055199;28;45527;-62
2022/03/26 07:11:41;;;;;;;;;51.75;42.50;;;;;13.60;37.75;101966.31;5054129;27;45606;-64
2022/03/26 07:14:07;;;;;;;;;49.00;41.50;;;;;13.63;38.26;101966.22;5055650;27;45437;-63
2022/03/26 07:16:32;;;;;;;;;54.00;44.00;;;;;13.62;38.46;101972.38;5063379;27;46164;-62
2022/03/26 07:18:57;;;;;;;;;50.50;42.00;;;;;13.57;38.12;101966.38;5067356;27;45537;-63
2022/03/26 07:21:23;;;;;;;;;52.50;43.75;;;;;13.59;38.47;101967.19;5066660;27;45732;-62
2022/03/26 07:23:49;;;;;;;;;54.00;43.00;;;;;13.61;38.06;101979.47;5073917;28;45452;-62
2022/03/26 07:26:14;;;;;;;;;49.75;40.25;;;;;13.52;38.26;101976.19;5059913;27;45481;-63
2022/03/26 07:28:39;;;;;;;;;49.00;42.25;;;;;13.47;38.42;101985.09;5055014;27;45443;-62
2022/03/26 07:31:06;;;;;;;;;51.25;38.50;;;;;13.45;37.89;101981.63;5062501;27;45552;-62
2022/03/26 07:33:32;;;;;;;;;50.75;42.00;;;;;13.46;38.54;101987.81;5057685;27;45402;-63
2022/03/26 07:35:57;;;;;;;;;43.75;35.25;;;;;13.41;37.84;101990.56;5067758;27;46180;-63
2022/03/26 07:38:22;;;;;;;;;53.25;42.75;;;;;13.42;38.21;101989.63;5060107;27;45335;-63
2022/03/26 07:40:48;;;;;;;;;53.25;44.00;;;;;13.39;38.78;101996.78;5065378;27;45401;-63
2022/03/26 07:43:13;;;;;;;;;52.25;42.75;;;;;13.40;38.37;101999.38;5069393;27;45358;-63
2022/03/26 07:45:38;;;;;;;;;54.00;43.50;;;;;13.40;37.90;101998.50;5065458;27;45619;-63
2022/03/26 07:48:05;;;;;;;;;54.25;44.75;;;;;13.38;38.26;102001.19;5063856;27;45396;-62
2022/03/26 07:50:31;;;;;;;;;56.50;43.00;;;;;13.42;38.55;102000.19;5067937;27;45829;-63
2022/03/26 07:52:56;;;;;;;;;50.00;42.50;;;;;13.47;37.91;101992.16;5078129;27;45599;-62
2022/03/26 07:55:22;;;;;;;;;53.00;44.00;;;;;13.54;37.75;101999.06;5069357;27;46305;-63
2022/03/26 07:57:47;;;;;;;;;54.75;44.25;;;;;13.58;37.49;102002.47;5074139;27;45559;-61
2022/03/26 08:00:13;;;;;;;;;45.75;39.00;;;;;13.54;37.89;101999.06;5068242;27;45488;-60
2022/03/26 08:02:38;;;;;;;;;49.75;41.50;;;;;13.56;37.82;101996.34;5066319;27;45561;-61
2022/03/26 08:05:05;;;;;;;;;49.50;40.25;;;;;13.55;38.10;101994.63;5058269;28;46943;-61
2022/03/26 08:07:31;;;;;;;;;51.00;42.00;;;;;13.55;38.02;101990.19;5064622;27;45534;-60
2022/03/26 08:09:56;;;;;;;;;45.25;35.25;;;;;13.64;37.96;101997.00;5064357;27;45534;-61
2022/03/26 08:12:22;;;;;;;;;50.25;42.25;;;;;13.71;37.71;101988.03;5066403;27;45747;-61
2022/03/26 08:14:47;;;;;;;;;45.50;37.75;;;;;13.79;37.63;101993.13;5066229;27;46134;-62
2022/03/26 08:17:13;;;;;;;;;48.75;41.75;;;;;13.85;36.92;101992.94;5066424;27;45579;-62
2022/03/26 08:19:38;;;;;;;;;51.75;42.00;;;;;13.88;36.81;101996.38;5066454;27;45536;-62
2022/03/26 08:22:04;;;;;;;;;53.75;42.00;;;;;13.92;37.35;101994.53;5064737;27;45484;-62
2022/03/26 08:24:33;;;;;;;;;50.25;42.75;;;;;13.98;37.13;102002.28;5068936;27;45528;-62
2022/03/26 08:26:59;;;;;;;;;54.50;43.25;;;;;14.04;36.51;101998.63;5075640;28;45383;-63
2022/03/26 08:29:24;;;;;;;;;52.25;43.25;;;;;14.07;36.48;101998.53;5071331;27;45348;-63
2022/03/26 08:31:50;;;;;;;;;57.50;44.00;;;;;14.10;35.92;101995.78;5073994;27;45517;-61
2022/03/26 08:34:18;;;;;;;;;50.75;41.00;;;;;14.13;36.24;101999.25;5071624;27;46129;-63
2022/03/26 08:36:43;;;;;;;;;48.25;38.00;;;;;14.19;36.79;102006.13;5067700;27;45418;-67
2022/03/26 08:39:09;;;;;;;;;49.00;40.50;;;;;14.26;36.33;102007.69;5069366;27;45833;-68
2022/03/26 08:41:34;;;;;;;;;53.50;43.50;;;;;14.30;36.37;102004.03;5080186;27;45671;-71
2022/03/26 08:43:59;;;;;;;;;48.75;38.75;;;;;14.33;35.81;102003.97;5074401;27;45913;-70
2022/03/26 08:46:25;;;;;;;;;48.75;40.50;;;;;14.39;36.21;102007.34;5064460;28;45426;-65
2022/03/26 08:48:50;;;;;;;;;50.50;40.00;;;;;14.43;35.96;102004.56;5066159;27;45574;-68
2022/03/26 08:51:17;;;;;;;;;50.50;41.25;;;;;14.48;35.77;102004.41;5069467;28;45568;-68
2022/03/26 08:53:43;;;;;;;;;45.75;36.00;;;;;14.51;35.69;101997.28;5076432;27;46066;-65
2022/03/26 08:56:08;;;;;;;;;57.75;43.25;;;;;14.57;35.46;102002.41;5056538;28;45422;-66
2022/03/26 08:58:35;;;;;;;;;49.25;39.50;;;;;14.61;35.35;102008.47;5066015;28;45399;-66
2022/03/26 09:01:01;;;;;;;;;51.00;41.50;;;;;14.66;34.92;102011.00;5071453;27;45435;-67
2022/03/26 09:03:27;;;;;;;;;25.00;22.00;;;;;14.71;35.13;102004.66;5060381;27;45890;-66
2022/03/26 09:05:53;;;;;;;;;50.25;40.00;;;;;14.77;34.79;102003.59;5058348;27;45642;-67
2022/03/26 09:08:19;;;;;;;;;50.75;41.50;;;;;14.81;35.31;102007.91;5067063;27;45320;-67
2022/03/26 09:10:45;;;;;;;;;53.00;40.00;;;;;14.86;34.33;102005.13;5055313;28;45685;-67
2022/03/26 09:13:10;;;;;;;;;54.50;41.00;;;;;14.88;34.55;102009.41;5060939;27;46131;-66
2022/03/26 09:15:37;;;;;;;;;38.50;35.75;;;;;14.92;34.73;102004.91;5069641;28;45684;-67
2022/03/26 09:18:02;;;;;;;;;51.75;40.75;;;;;14.95;34.14;101999.53;5075956;28;45408;-67
2022/03/26 09:20:28;;;;;;;;;44.00;35.50;;;;;15.00;35.03;101997.59;5073893;27;45408;-67
2022/03/26 09:22:53;;;;;;;;;53.25;42.50;;;;;15.05;34.80;102000.09;5063295;27;46611;-67
2022/03/26 09:25:20;;;;;;;;;51.00;41.00;;;;;15.08;34.87;101995.56;5076563;27;45405;-67
2022/03/26 09:27:46;;;;;;;;;49.00;41.50;;;;;15.09;34.41;101997.28;5073805;27;45443;-67
2022/03/26 09:30:12;;;;;;;;;54.25;42.25;;;;;15.17;33.74;101992.59;5063814;27;45664;-67
2022/03/26 09:32:37;;;;;;;;;47.75;38.00;;;;;15.23;34.39;101996.84;5061904;28;46121;-66
2022/03/26 09:35:04;;;;;;;;;47.00;39.00;;;;;15.28;35.10;102000.22;5066466;28;45469;-66
2022/03/26 09:37:29;;;;;;;;;46.25;40.00;;;;;15.32;34.28;101998.34;5072161;27;45449;-67
2022/03/26 09:39:55;;;;;;;;;46.00;39.25;;;;;15.38;34.23;101995.50;5067966;27;45666;-67
2022/03/26 09:42:23;;;;;;;;;40.50;34.50;;;;;15.40;33.37;102001.63;5073447;27;45955;-67
2022/03/26 09:44:50;;;;;;;;;48.50;41.00;;;;;15.45;34.03;102000.53;5055861;28;45489;-67
2022/03/26 09:47:16;;;;;;;;;46.00;38.25;;;;;15.48;33.48;101994.28;5069557;28;45379;-67
2022/03/26 09:49:41;;;;;;;;;50.25;42.00;;;;;15.50;33.24;101995.09;5064865;27;45322;-66
2022/03/26 09:52:07;;;;;;;;;47.00;38.00;;;;;15.53;33.32;101992.34;5074671;27;46014;-67
2022/03/26 09:54:34;;;;;;;;;47.50;37.25;;;;;15.56;33.61;101989.56;5071923;27;45400;-67
2022/03/26 09:57:00;;;;;;;;;49.50;37.25;;;;;15.62;34.11;101994.66;5059353;27;45558;-67
2022/03/26 09:59:25;;;;;;;;;48.00;40.25;;;;;15.68;34.38;102001.53;5061358;27;45586;-68
2022/03/26 10:01:51;;;;;;;;;44.75;38.00;;;;;15.71;33.37;102001.47;5060468;27;46923;-68
2022/03/26 10:04:21;;;;;;;;;47.25;39.25;;;;;15.73;33.24;101990.81;5073701;27;45393;-68
2022/03/26 10:06:46;;;;;;;;;19.75;19.25;;;;;15.75;33.71;101992.50;5064190;27;45671;-67
2022/03/26 10:09:12;;;;;;;;;48.00;40.50;;;;;15.80;33.84;101997.66;5069262;27;45602;-67
2022/03/26 10:11:37;;;;;;;;;47.00;39.25;;;;;15.84;33.99;101993.97;5063647;27;45987;-67
2022/03/26 10:14:02;;;;;;;;;50.50;38.25;;;;;15.94;33.50;101991.84;5068737;27;45546;-67
2022/03/26 10:16:28;;;;;;;;;45.50;38.75;;;;;16.04;33.84;101995.91;5074489;27;45303;-67
2022/03/26 10:18:58;;;;;;;;;52.75;41.00;;;;;16.11;33.27;101990.31;5065952;28;45473;-65
2022/03/26 10:21:24;;;;;;;;;40.75;35.25;;;;;16.19;33.87;101983.88;5067334;27;45530;-67
2022/03/26 10:23:51;;;;;;;;;49.75;37.25;;;;;16.30;33.51;101981.69;5070195;27;45510;-67
2022/03/26 10:26:21;;;;;;;;;43.00;36.50;;;;;16.50;34.26;101981.81;5063849;28;45536;-67
2022/03/26 10:28:56;;;;;;;;;48.00;37.25;;;;;16.72;33.26;101987.16;5061598;27;45587;-67
2022/03/26 10:34:12;;;;;;;;;48.25;41.75;;;;;17.13;32.07;101984.66;5075807;28;45377;-65
2022/03/26 10:36:46;;;;;;;;;44.75;36.75;;;;;17.26;31.92;101984.19;5073649;27;45452;-63
2022/03/26 10:39:20;;;;;;;;;45.50;38.50;;;;;17.26;32.77;101984.19;5069109;27;45797;-65
2022/03/26 10:41:47;;;;;;;;;38.50;34.00;;;;;17.23;32.22;101974.53;5060752;27;45471;-64
2022/03/26 10:44:33;;;;;;;;;31.00;27.50;;;;;17.19;32.02;101975.56;5068885;28;45390;-64
2022/03/26 10:47:01;;;;;;;;;43.50;36.50;;;;;17.15;31.60;101976.66;5074156;27;45357;-65
2022/03/26 10:49:32;;;;;;;;;48.50;38.25;;;;;17.10;32.03;101975.97;5075473;27;45370;-67
2022/03/26 10:52:12;;;;;;;;;49.00;42.00;;;;;17.03;31.15;101967.34;5073965;27;45593;-66
2022/03/26 10:54:38;;;;;;;;;47.00;39.50;;;;;16.96;31.62;101974.72;5056534;27;45432;-66
2022/03/26 10:57:03;;;;;;;;;51.00;40.25;;;;;16.93;31.27;101976.66;5056684;27;45568;-66
2022/03/26 10:59:30;;;;;;;;;49.25;40.25;;;;;16.90;31.45;101967.00;5069697;27;45555;-66
2022/03/26 11:01:57;;;;;;;;;47.50;40.00;;;;;16.89;32.03;101967.91;5069077;27;45990;-66
2022/03/26 11:04:22;;;;;;;;;46.50;39.00;;;;;16.92;32.03;101965.13;5073493;28;45455;-66
2022/03/26 11:06:48;;;;;;;;;49.25;39.75;;;;;16.93;31.73;101961.56;5055265;28;45354;-66
2022/03/26 11:09:17;;;;;;;;;47.50;39.25;;;;;16.96;31.59;101965.91;5060745;27;45536;-65